Huailai, China
Current Conditions -  °F | °C
As of 4:30 AM on Saturday 01 Nov 2014 (Local Time) from ZBAA Reporting Station
Light Fog Light Fog  
Wind Chill: 43°   Ceiling: Unl
Heat Index: 43°   Visibility: 1.5mi
Dew Point: 43°   Wind: 0mph
Humidity: 100%   Direction: NA
Pressure: 30.09"   Gusts: NA
Location:  40.4°N, 115.5°E
Report Text: ZBAA 312030Z 00000MPS 2500 R01/0100V0250NR36R/P2000NR36L/P2000U BR BCFG NSC 06/06 Q1019 NOSIG
Loading
Personal Weather Stations






























Interactive Weather Map
Tropical Storm Tracking
New forecast layout! Learn more

10-Day Weather Forecast

Advertisements
Track Severe Weather on mobile